Fairgrounds, Vermont
Current Conditions -  °F | °C
As of 5:55 PM on Thursday 23 Oct 2014 (Local Time) from KFSO Reporting Station
Light Rain Light Rain  
Wind Chill: 36°   Ceiling: 800
Heat Index: 42°   Visibility: 5mi
Dew Point: 41°   Wind: 10mph
Humidity: 97%   Direction: 360°N
Pressure: 29.93"   Gusts: 17mph
Location:  44.8776°N, 72.9201°W
Report Text: KFSO 232155Z AUTO 36009G15KT 5SM -RA OVC008 06/05 A2993 RMK AO2 T00550050
Loading
Personal Weather Stations






























Interactive Weather Map
Tropical Storm Tracking
New forecast layout! Learn more

10-Day Weather Forecast

Advertisements
Track Severe Weather on mobile